Tiempo atmosférico en la estación meteorológica de Cabo Peñas, Asturias (100 m.)



Fecha
DESCASC
Temp. máxima en grados centígrados (hora)
DESCASC
Temp. mínima en grados centígrados (hora)
DESCASC
Temp. media en grados centígrados
DESCASC
Racha de viento máxima en m/sg (hora)
DESCASC
Velocidad máxima media en intervalos de 10 minutos(hora)
DESCASC
Precipitaciones diarias en mm
DESCASC
Precipitaciones de 00:00 a 06:00 en mm
DESCASC
Precipitaciones de 06:00 a 12:00 en mm
DESCASC
Precipitaciones de 12:00 a 18:00 en mm
DESCASC
Precipitaciones de 18:00 a 24:00 en mm
DESCASC
13-06-2019 16.6 (13:10) 12.4 (00:00) 14.5 6.94 (18:10) 3.06 (10:30) 0 0 0 0 0
14-06-2019 17.7 (14:50) 11.6 (00:00) 14.7 4.72 (22:30) 3.06 (23:59) 0 0 0 0 0
03-06-2019 18.4 (15:50) 15.6 (00:00) 17 5.28 (04:00) 3.61 (03:00) 0 0 0 0 0
25-05-2019 -- (--) -- (--) -- 6.11 (05:40) 3.89 (05:40) 0 0 0 0 0
26-05-2019 -- (--) -- (--) -- 5.28 (18:30) 3.89 (07:10) 0 0 0 0 0
17-06-2019 18.8 (13:10) 15.2 (00:00) 17 6.67 (06:20) 4.44 (06:20) 0 0 0 0 0
15-06-2019 17.7 (17:00) 12.9 (00:00) 15.3 8.89 (13:00) 5 (13:30) 0 0 0 0 0
27-05-2019 -- (--) -- (--) -- 9.72 (11:40) 5 (08:00) 1 0 0.9 0 0.1
28-05-2019 -- (--) -- (--) -- 10.56 (06:50) 5 (09:30) 0 0 0 0 0
18-06-2019 19.5 (17:20) 14.3 (00:00) 16.9 7.5 (12:30) 5 (17:10) 1.5 0 0 0 1.5
19-06-2019 19.6 (12:50) 15.1 (00:00) 17.4 6.67 (01:20) 5.28 (01:20) 0.6 0.1 0 0 0.5
24-05-2019 -- (--) -- (--) -- 9.17 (01:30) 5.28 (03:40) 0 0 0 0 0
09-06-2019 15.3 (16:30) 12.3 (00:00) 13.8 8.61 (00:50) 5.56 (04:20) 0 0 0 0 0
08-06-2019 15.9 (12:50) 10.2 (00:00) 13 8.89 (22:40) 5.56 (23:00) 0 0 0 0 0
02-06-2019 19.3 (17:30) 14.3 (00:00) 16.8 6.67 (13:30) 5.83 (00:30) 0 0 0 0 0
16-06-2019 18.7 (16:10) 13.8 (00:00) 16.3 9.17 (16:10) 5.83 (15:50) 0 0 0 0 0
10-06-2019 15.6 (13:20) 10.8 (00:00) 13.2 14.44 (23:20) 6.11 (23:20) 0 0 0 0 0
23-05-2019 -- (--) -- (--) -- 13.61 (21:00) 6.67 (04:20) 0 0 0 0 0
01-06-2019 22.5 (11:30) 15.4 (00:00) 18.9 9.72 (00:10) 7.22 (00:10) 0 0 0 0 0
29-05-2019 -- (--) -- (--) -- 9.72 (22:00) 7.22 (23:40) 0 0 0 0 0
21-05-2019 -- (--) -- (--) -- 11.39 (18:20) 7.5 (21:10) 0 0 0 0 0
22-05-2019 -- (--) -- (--) -- 11.11 (01:40) 7.78 (01:20) 0 0 0 0 0
05-06-2019 15.1 (15:30) 10.8 (00:00) 13 14.72 (13:00) 8.06 (07:50) 9.9 4.6 3.7 0.3 1.3
04-06-2019 19.2 (10:20) 14.3 (00:00) 16.8 17.22 (12:40) 8.61 (16:20) 0.2 0 0 0 0.2
12-06-2019 15.3 (17:20) 11.5 (00:00) 13.4 16.11 (00:40) 8.89 (08:30) 0.2 0 0.2 0 0
11-06-2019 15.3 (16:00) 11 (00:00) 13.2 18.89 (09:10) 8.89 (09:10) 2.8 1.1 1.6 0 0.1
31-05-2019 19.5 (15:10) 14.4 (00:00) 16.9 12.22 (17:10) 9.17 (18:00) 0 0 0 0 0
30-05-2019 -- (--) -- (--) -- 12.78 (21:10) 9.17 (21:10) 0 0 0 0 0
06-06-2019 17.3 (19:10) 9.7 (00:00) 13.5 15.56 (23:30) 11.11 (23:30) 0.7 0.1 0 0.5 0.1
07-06-2019 15.9 (14:40) 12.6 (00:00) 14.3 22.5 (03:50) 12.78 (04:50) 0.5 0 0.2 0.2 0.1

Gráficas

Temp. máximas Temp. mínimas Temp. medias Precipitaciones Rachas de viento máximas Velocidades máximas media en intervalos de 10 minutos

Datos horarios

Fecha y hora oficial Temperatura (ºC) Velocidad del viento (km/h) Dirección del viento Racha (km/h) Dirección de racha Precipitación (mm) Presión (hPa) Tendencia (hPa) Humedad (%)
2019-06-19 23:00:00 15.3 4 Noroeste 12 Oeste 0 -- -- 92
2019-06-19 22:00:00 15.5 6 Oeste 15 Oeste 0 -- -- 92
2019-06-19 21:00:00 15.5 8 Noroeste 24 Noroeste 0 -- -- 91
2019-06-19 20:00:00 15.9 10 Noroeste 17 Noroeste 0 -- -- 91
2019-06-19 19:00:00 16.1 7 Noroeste 15 Oeste 0 -- -- 91
2019-06-19 18:00:00 16.8 5 Oeste 17 Noroeste 0 -- -- 90
2019-06-19 17:00:00 16.9 6 Oeste 22 Oeste 0 -- -- 88
2019-06-19 16:00:00 17.3 9 Oeste 17 Oeste 0 -- -- 88
2019-06-19 15:00:00 18.1 12 Oeste 20 Noroeste 0 -- -- 89
2019-06-19 14:00:00 17.9 7 Noroeste 20 Noroeste 0 -- -- 88
2019-06-19 13:00:00 18.7 10 Noroeste 18 Norte 0 -- -- 82
2019-06-19 12:00:00 19.4 9 Oeste 14 Sudoeste 0 -- -- 81
2019-06-19 11:00:00 17.1 10 Sudoeste 13 Oeste 0 -- -- 88
2019-06-19 10:00:00 19 0 Calma 8 Sudoeste 0 -- -- 84
2019-06-19 09:00:00 18.3 3 Sudoeste 6 Oeste 0 -- -- 83
2019-06-19 08:00:00 16.9 4 Sudeste 10 Sudoeste 0 -- -- 83
2019-06-19 07:00:00 16.9 3 Oeste 11 Oeste 0 -- -- 82
2019-06-19 06:00:00 17.3 8 Noroeste 15 Oeste 0 -- -- 81
2019-06-19 05:00:00 16 8 Oeste 13 Sudoeste 0 -- -- 83
2019-06-19 04:00:00 16.7 8 Sudoeste 15 Sur 0 -- -- 83
2019-06-19 03:00:00 16.4 5 Sur 16 Sudeste 0 -- -- 83
2019-06-19 02:00:00 16.4 7 Sur 24 Sudeste 0 -- -- 81
2019-06-19 01:00:00 16.5 17 Sudeste 22 Sudeste 0.1 -- -- 76
2019-06-19 00:00:00 16.9 7 Sudeste 21 Sudeste 0 -- -- 82
2019-06-18 23:00:00 16 2 Sur 10 Sudeste 0.1 -- -- 87
2019-06-18 22:00:00 15.7 7 Sudoeste 11 Sudeste 0 -- -- 90
2019-06-18 21:00:00 16.2 6 Sudeste 12 Sudeste 0.5 -- -- 87
2019-06-18 20:00:00 16.1 8 Sudeste 21 Sudeste 0.1 -- -- 90
2019-06-18 19:00:00 16.4 10 Este 25 Sudeste 0.8 -- -- 88
2019-06-18 18:00:00 17.4 18 Este 26 Este 0 -- -- 82
2019-06-18 17:00:00 17 15 Sudeste 20 Sudeste 0 -- -- 87
2019-06-18 16:00:00 17.2 7 Este 16 Este 0 -- -- 87
2019-06-18 15:00:00 16.6 2 Norte 17 Noroeste 0 -- -- 88
2019-06-18 14:00:00 16.5 5 Noroeste 18 Noroeste 0 -- -- 90
2019-06-18 13:00:00 16 14 Noroeste 27 Norte 0 -- -- 91
2019-06-18 12:00:00 15.7 8 Noroeste 21 Noroeste 0 -- -- 92
2019-06-18 11:00:00 16 4 Norte 12 Este 0 -- -- 92
2019-06-18 10:00:00 16 8 Este 16 Este 0 -- -- 94
2019-06-18 09:00:00 15.3 9 Este 14 Sudeste 0 -- -- 94
2019-06-18 08:00:00 15.4 6 Sudeste 9 Sudeste 0 -- -- 94
2019-06-18 07:00:00 14.5 4 Sudeste 13 Sudeste 0 -- -- 94
2019-06-18 06:00:00 14.7 8 Sudeste 12 Sudeste 0 -- -- 94
2019-06-18 05:00:00 15 0 Calma 8 Nordeste 0 -- -- 93
2019-06-18 04:00:00 15.3 4 Este 10 Este 0 -- -- 92
2019-06-18 03:00:00 15.2 5 Este 14 Sudeste 0 -- -- 92
2019-06-18 02:00:00 15.2 11 Este 15 Este 0 -- -- 91
2019-06-18 01:00:00 15.2 10 Sudeste 14 Sudeste 0 -- -- 91
2019-06-18 00:00:00 15.5 3 Este 9 Sudoeste 0 -- -- 91
2019-06-17 23:00:00 15.3 7 Sudoeste 13 Sudoeste 0 -- -- 91
2019-06-17 22:00:00 15.5 5 Noroeste 17 Sudoeste 0 -- -- 91
2019-06-17 21:00:00 15.7 8 Oeste 15 Oeste 0 -- -- 90
2019-06-17 20:00:00 15.8 6 Noroeste 15 Oeste 0 -- -- 89
2019-06-17 19:00:00 16 7 Oeste 17 Oeste 0 -- -- 88
2019-06-17 18:00:00 16.1 4 Noroeste 23 Oeste 0 -- -- 87
2019-06-17 17:00:00 16.8 7 Noroeste 17 Noroeste 0 -- -- 87
2019-06-17 16:00:00 16.5 8 Noroeste 18 Noroeste 0 -- -- 87
2019-06-17 15:00:00 16.8 2 Noroeste 15 Nordeste 0 -- -- 82
2019-06-17 14:00:00 17.7 0 Calma 13 Nordeste 0 -- -- 82
2019-06-17 13:00:00 18.3 5 Sudeste 20 Sudeste 0 -- -- 83
2019-06-17 12:00:00 17.1 4 Este 13 Sudeste 0 -- -- 87
2019-06-17 11:00:00 17.4 2 Sudeste 11 Este 0 -- -- 87
2019-06-17 10:00:00 16.4 7 Este 10 Este 0 -- -- 86
2019-06-17 09:00:00 16.1 5 Este 10 Sudeste 0 -- -- 86
2019-06-17 08:00:00 15.5 7 Sudeste 18 Este 0 -- -- 87
2019-06-17 07:00:00 15.4 12 Sudeste 24 Sudeste 0 -- -- 87
2019-06-17 06:00:00 15.2 10 Sudeste 23 Este 0 -- -- 88
2019-06-17 05:00:00 15.3 13 Este 23 Este 0 -- -- 88
2019-06-17 04:00:00 15.5 10 Este 20 Este 0 -- -- 87
2019-06-17 03:00:00 15.5 8 Este 15 Este 0 -- -- 87
2019-06-17 02:00:00 15.5 8 Este 18 Este 0 -- -- 87
2019-06-17 01:00:00 15.5 11 Este 19 Este 0 -- -- 88
2019-06-17 00:00:00 15.5 11 Este 26 Este 0 -- -- 88
2019-06-16 23:00:00 15.7 13 Este 24 Este 0 -- -- 90
2019-06-16 22:00:00 15.6 14 Este 27 Sudeste 0 -- -- 90
2019-06-16 21:00:00 15.8 17 Este 29 Este 0 -- -- 90
2019-06-16 20:00:00 16.3 17 Este 28 Sudeste 0 -- -- 89
2019-06-16 19:00:00 16.6 17 Este 27 Este 0 -- -- 87
2019-06-16 18:00:00 16.7 17 Este 32 Este 0 -- -- 87
2019-06-16 17:00:00 17.2 18 Este 33 Este 0 -- -- 85
2019-06-16 16:00:00 18 20 Este 33 Este 0 -- -- 82
2019-06-16 15:00:00 17.4 18 Este 31 Sudeste 0 -- -- 83
2019-06-16 14:00:00 17.3 19 Este 32 Este 0 -- -- 81
2019-06-16 13:00:00 16.6 17 Este 28 Este 0 -- -- 83
2019-06-16 12:00:00 16.8 17 Este 26 Este 0 -- -- 77
2019-06-16 11:00:00 16.5 12 Este 17 Este 0 -- -- 76
2019-06-16 10:00:00 17.1 9 Este 15 Este 0 -- -- 74
2019-06-16 09:00:00 16.1 7 Este 10 Este 0 -- -- 76
2019-06-16 08:00:00 15.4 5 Este 8 Sudeste 0 -- -- 81
2019-06-16 07:00:00 14 4 Este 5 Este 0 -- -- 85
2019-06-16 06:00:00 14 3 Este 5 Sudeste 0 -- -- 85
2019-06-16 05:00:00 14.2 3 Este 7 Este 0 -- -- 83
2019-06-16 04:00:00 14.8 4 Este 6 Este 0 -- -- 76
2019-06-16 03:00:00 14.9 4 Este 8 Sudeste 0 -- -- 76
2019-06-16 02:00:00 15.2 7 Sudeste 9 Sudeste 0 -- -- 76
2019-06-16 01:00:00 15.2 6 Sudeste 9 Sudeste 0 -- -- 76
2019-06-16 00:00:00 15.2 6 Sudeste 8 Sudeste 0 -- -- 76
2019-06-15 23:00:00 15.2 4 Sudeste 6 Sudeste 0 -- -- 76
2019-06-15 22:00:00 15.4 2 Sudeste 6 Este 0 -- -- 76
2019-06-15 21:00:00 15.8 0 Calma 6 Norte 0 -- -- 76
2019-06-15 20:00:00 16 2 Noroeste 9 Norte 0 -- -- 76
2019-06-15 19:00:00 16.7 3 Norte 12 Noroeste 0 -- -- 76
2019-06-15 18:00:00 16.3 5 Norte 23 Norte 0 -- -- 76
2019-06-15 17:00:00 16.8 4 Norte 18 Norte 0 -- -- 69
2019-06-15 16:00:00 17.2 5 Norte 24 Noroeste 0 -- -- 71
2019-06-15 15:00:00 16.3 9 Noroeste 27 Norte 0 -- -- 71
2019-06-15 14:00:00 16.3 13 Noroeste 28 Noroeste 0 -- -- 68
2019-06-15 13:00:00 16.5 15 Noroeste 32 Noroeste 0 -- -- 69
2019-06-15 12:00:00 16.2 12 Noroeste 23 Noroeste 0 -- -- 73
2019-06-15 11:00:00 16.5 6 Noroeste 17 Sudoeste 0 -- -- 75
2019-06-15 10:00:00 15.8 9 Oeste 19 Oeste 0 -- -- 76
2019-06-15 09:00:00 15 10 Sudoeste 15 Oeste 0 -- -- 82
2019-06-15 08:00:00 14.2 10 Oeste 25 Oeste 0 -- -- 86
2019-06-15 07:00:00 13.5 12 Oeste 17 Oeste 0 -- -- 83
2019-06-15 06:00:00 13.3 9 Sudoeste 14 Sudoeste 0 -- -- 83
2019-06-15 05:00:00 13.2 6 Sur 15 Sur 0 -- -- 87
2019-06-15 04:00:00 13.8 6 Sur 11 Sudoeste 0 -- -- 85
2019-06-15 03:00:00 14 6 Sur 11 Sur 0 -- -- 83
2019-06-15 02:00:00 14.1 7 Sur 12 Sudoeste 0 -- -- 83
2019-06-15 01:00:00 14.1 8 Sur 18 Oeste 0 -- -- 86
2019-06-15 00:00:00 14.4 11 Oeste 16 Oeste 0 -- -- 83
2019-06-14 23:00:00 14.7 6 Oeste 17 Noroeste 0 -- -- 82
2019-06-14 22:00:00 14.9 6 Oeste 15 Sudoeste 0 -- -- 76
2019-06-14 21:00:00 15.7 4 Noroeste 12 Norte 0 -- -- 76
2019-06-14 20:00:00 15.8 0 Calma 9 Sudeste 0 -- -- 76
2019-06-14 19:00:00 16.1 6 Este 15 Este 0 -- -- 76
2019-06-14 18:00:00 16.6 3 Este 15 Sudeste 0 -- -- 73
2019-06-14 17:00:00 16.9 3 Sudeste 14 Este 0 -- -- 74
2019-06-14 16:00:00 17.4 4 Este 13 Este 0 -- -- 75
2019-06-14 15:00:00 17.3 3 Este 13 Sudeste 0 -- -- 75
2019-06-14 14:00:00 17.1 0 Calma 12 Sudeste 0 -- -- 76
2019-06-14 13:00:00 16.1 3 Sudeste 9 Este 0 -- -- 79
2019-06-14 12:00:00 15.2 4 Este 11 Este 0 -- -- 81
2019-06-14 11:00:00 15.8 2 Nordeste 10 Noroeste 0 -- -- 82
2019-06-14 10:00:00 14 0 Calma 10 Noroeste 0 -- -- 88
2019-06-14 09:00:00 14.9 2 Norte 6 Norte 0 -- -- 84
2019-06-14 08:00:00 13.4 0 Calma 7 Sur 0 -- -- 89
2019-06-14 07:00:00 11.8 4 Sur 9 Sudeste 0 -- -- 90
2019-06-14 06:00:00 12.6 5 Sudeste 12 Sudeste 0 -- -- 89
2019-06-14 05:00:00 12.7 6 Sudeste 13 Este 0 -- -- 89
2019-06-14 04:00:00 13.1 4 Este 8 Este 0 -- -- 84
2019-06-14 03:00:00 13.4 0 Calma 9 Sudeste 0 -- -- 84
2019-06-14 02:00:00 13.6 7 Sudeste 9 Sudeste 0 -- -- 85
2019-06-14 01:00:00 13.4 6 Sudeste 12 Sudeste 0 -- -- 86
2019-06-14 00:00:00 13.6 9 Sudeste 12 Sudeste 0 -- -- 81
2019-06-13 23:00:00 13.8 9 Sudeste 13 Sudeste 0 -- -- 82
2019-06-13 22:00:00 13.9 6 Sudeste 10 Este 0 -- -- 81
2019-06-13 21:00:00 14.1 6 Sudeste 10 Este 0 -- -- 79
2019-06-13 20:00:00 14.4 5 Este 9 Este 0 -- -- 77
2019-06-13 19:00:00 14.6 5 Este 25 Este 0 -- -- 79
2019-06-13 18:00:00 14.9 5 Este 14 Este 0 -- -- 76
2019-06-13 17:00:00 15.1 5 Este 16 Este 0 -- -- 73
2019-06-13 16:00:00 15.3 7 Este 16 Sudeste 0 -- -- 79
2019-06-13 15:00:00 14.5 5 Este 16 Este 0 -- -- 81
2019-06-13 14:00:00 15.3 4 Este 18 Este 0 -- -- 76
2019-06-13 13:00:00 16 6 Sudeste 18 Sur 0 -- -- 74
2019-06-13 12:00:00 15.4 6 Este 18 Nordeste 0 -- -- 76
2019-06-13 11:00:00 15.6 11 Este 17 Este 0 -- -- 75
2019-06-13 10:00:00 15.5 9 Este 15 Este 0 -- -- 76
2019-06-13 09:00:00 14.8 4 Sudeste 9 Sudeste 0 -- -- 81
2019-06-13 08:00:00 13.1 2 Sur 6 Este 0 -- -- 86
2019-06-13 07:00:00 12.5 0 Calma 5 Este 0 -- -- 86
2019-06-13 06:00:00 12.8 4 Este 7 Este 0 -- -- 85
2019-06-13 05:00:00 13 3 Este 4 Sudeste 0 -- -- 83
2019-06-13 04:00:00 13 2 Sudeste 4 Sudeste 0 -- -- 82
2019-06-13 03:00:00 13.2 3 Sudeste 5 Sudeste 0 -- -- 82
2019-06-13 02:00:00 13.3 0 Calma 2 Sudoeste 0 -- -- 81
2019-06-13 01:00:00 13.2 0 Calma 6 Oeste 0 -- -- 81
2019-06-13 00:00:00 13.5 3 Noroeste 6 Oeste 0 -- -- 81
2019-06-12 23:00:00 13.4 2 Noroeste 10 Oeste 0 -- -- 81
2019-06-12 22:00:00 13.5 5 Noroeste 15 Noroeste 0 -- -- 81
2019-06-12 21:00:00 13.8 9 Noroeste 24 Noroeste 0 -- -- 76
2019-06-12 20:00:00 14.1 15 Noroeste 32 Noroeste 0 -- -- 76
2019-06-12 19:00:00 14.4 16 Noroeste 28 Noroeste 0 -- -- 76
2019-06-12 18:00:00 14.2 19 Noroeste 32 Noroeste 0 -- -- 79
2019-06-12 17:00:00 15 18 Noroeste 31 Noroeste 0 -- -- 79
2019-06-12 16:00:00 14.6 18 Noroeste 33 Noroeste 0 -- -- 82
2019-06-12 15:00:00 14.2 18 Noroeste 43 Noroeste 0 -- -- 83
2019-06-12 14:00:00 14 19 Oeste 39 Noroeste 0 -- -- 76
2019-06-12 13:00:00 13.8 22 Oeste 44 Oeste 0 -- -- 76
2019-06-12 12:00:00 13.4 26 Oeste 44 Oeste 0 -- -- 76
2019-06-12 11:00:00 13 24 Oeste 42 Sudoeste 0 -- -- 82
2019-06-12 10:00:00 12.6 27 Oeste 51 Oeste 0.2 -- -- 89
2019-06-12 09:00:00 12.7 28 Oeste 55 Oeste 0 -- -- 82
2019-06-12 08:00:00 12.9 28 Oeste 55 Oeste 0 -- -- 81
2019-06-12 07:00:00 12.1 22 Sudoeste 42 Sudoeste 0 -- -- 86
2019-06-12 06:00:00 11.8 28 Sudoeste 42 Sudoeste 0 -- -- 85
2019-06-12 05:00:00 12.6 28 Oeste 48 Noroeste 0 -- -- 84
2019-06-12 04:00:00 13.2 23 Oeste 50 Noroeste 0 -- -- 81
2019-06-12 03:00:00 13.7 23 Oeste 56 Oeste 0 -- -- 76
2019-06-12 02:00:00 13.7 21 Oeste 48 Noroeste 0 -- -- 76
2019-06-12 01:00:00 13.7 18 Noroeste 58 Sudoeste 0 -- -- 79
2019-06-12 00:00:00 13.8 21 Noroeste 45 Oeste 0 -- -- 79
2019-06-11 23:00:00 13.9 19 Noroeste 44 Oeste 0 -- -- 79
2019-06-11 22:00:00 13.6 20 Oeste 46 Oeste 0 -- -- 81
2019-06-11 21:00:00 14.2 16 Oeste 44 Oeste 0 -- -- 76
2019-06-11 20:00:00 14.5 18 Noroeste 46 Noroeste 0 -- -- 76
2019-06-11 19:00:00 14.4 27 Noroeste 50 Noroeste 0.1 -- -- 81
2019-06-11 18:00:00 14.8 20 Noroeste 42 Noroeste 0 -- -- 76
2019-06-11 17:00:00 15 15 Noroeste 39 Noroeste 0 -- -- 76
2019-06-11 16:00:00 14.9 15 Noroeste 40 Noroeste 0 -- -- 75
2019-06-11 15:00:00 14.7 18 Noroeste 40 Noroeste 0 -- -- 76
2019-06-11 14:00:00 14.1 21 Noroeste 44 Noroeste 0 -- -- 76
2019-06-11 13:00:00 14.2 22 Noroeste 40 Noroeste 0 -- -- 74
2019-06-11 12:00:00 14.1 24 Noroeste 41 Noroeste 0 -- -- 73
2019-06-11 11:00:00 13.7 21 Noroeste 39 Noroeste 0 -- -- 76
2019-06-11 10:00:00 13.1 23 Noroeste 68 Noroeste 1.5 -- -- 79
2019-06-11 09:00:00 13.4 21 Noroeste 42 Noroeste 0 -- -- 75
2019-06-11 08:00:00 13.2 19 Noroeste 38 Noroeste 0 -- -- 76
2019-06-11 07:00:00 13 24 Noroeste 42 Norte 0.1 -- -- 75
2019-06-11 06:00:00 12.4 17 Noroeste 54 Norte 0 -- -- 76
2019-06-11 05:00:00 12.7 23 Noroeste 38 Noroeste 0 -- -- 79
2019-06-11 04:00:00 12.2 18 Noroeste 33 Noroeste 0.1 -- -- 86
2019-06-11 03:00:00 11.5 18 Noroeste 45 Noroeste 1 -- -- 92
2019-06-11 02:00:00 12.7 21 Noroeste 35 Noroeste 0 -- -- 82
2019-06-11 01:00:00 12.8 16 Noroeste 37 Norte 0 -- -- 86
2019-06-11 00:00:00 13.3 11 Norte 52 Noroeste 0 -- -- 86
2019-06-10 23:00:00 13.9 14 Noroeste 29 Noroeste 0 -- -- 81
2019-06-10 22:00:00 13.8 13 Noroeste 29 Noroeste 0 -- -- 82
2019-06-10 21:00:00 13.9 11 Noroeste 29 Norte 0 -- -- 79
2019-06-10 20:00:00 14 15 Noroeste 31 Noroeste 0 -- -- 77
2019-06-10 19:00:00 14.2 16 Noroeste 30 Noroeste 0 -- -- 82
2019-06-10 18:00:00 14.8 16 Noroeste 34 Noroeste 0 -- -- 81
2019-06-10 17:00:00 14.5 14 Noroeste 31 Noroeste 0 -- -- 81
2019-06-10 16:00:00 14.9 15 Noroeste 26 Noroeste 0 -- -- 76
2019-06-10 15:00:00 14.8 13 Noroeste 26 Noroeste 0 -- -- 76
2019-06-10 14:00:00 14.7 11 Noroeste 22 Noroeste 0 -- -- 76
2019-06-10 13:00:00 15.3 7 Noroeste 22 Oeste 0 -- -- 76
2019-06-10 12:00:00 14.8 7 Oeste 15 Noroeste 0 -- -- 79
2019-06-10 11:00:00 14.3 7 Oeste 14 Sudoeste 0 -- -- 75
2019-06-10 10:00:00 14.3 9 Sudoeste 13 Sudoeste 0 -- -- 76
2019-06-10 09:00:00 12.7 7 Sudoeste 10 Sudoeste 0 -- -- 85
2019-06-10 08:00:00 11.4 8 Sudoeste 11 Sudoeste 0 -- -- 87
2019-06-10 07:00:00 11.1 8 Sudoeste 10 Sudoeste 0 -- -- 87
2019-06-10 06:00:00 10.8 8 Sudoeste 9 Sudoeste 0 -- -- 87
2019-06-10 05:00:00 11.8 2 Noroeste 4 Noroeste 0 -- -- 82
2019-06-10 04:00:00 12.3 4 Nordeste 5 Este 0 -- -- 81
2019-06-10 03:00:00 11.9 3 Sur 7 Sudoeste 0 -- -- 83
2019-06-10 02:00:00 12 4 Sur 10 Sudoeste 0 -- -- 85
2019-06-10 01:00:00 11.9 9 Sur 12 Sudoeste 0 -- -- 86
2019-06-10 00:00:00 12.3 4 Sur 12 Sudeste 0 -- -- 85
2019-06-09 23:00:00 13.1 8 Sudeste 10 Sudeste 0 -- -- 85
2019-06-09 22:00:00 13.2 4 Este 7 Sudeste 0 -- -- 84
2019-06-09 21:00:00 13.6 6 Sudeste 12 Este 0 -- -- 83
2019-06-09 20:00:00 13.7 8 Este 14 Este 0 -- -- 83
2019-06-09 19:00:00 13.8 7 Este 18 Este 0 -- -- 82
2019-06-09 18:00:00 13.8 12 Este 20 Este 0 -- -- 85
2019-06-09 17:00:00 14.7 9 Este 28 Sudeste 0 -- -- 84
2019-06-09 16:00:00 14.8 8 Este 25 Este 0 -- -- 82
2019-06-09 15:00:00 14.4 8 Este 24 Sudeste 0 -- -- 76
2019-06-09 14:00:00 14.4 9 Este 25 Sudeste 0 -- -- 82
2019-06-09 13:00:00 14.6 6 Este 21 Este 0 -- -- 81
2019-06-09 12:00:00 14.3 6 Sudeste 21 Este 0 -- -- 76
2019-06-09 11:00:00 13.7 8 Este 26 Este 0 -- -- 91
2019-06-09 10:00:00 13.8 10 Este 25 Este 0 -- -- 91
2019-06-09 09:00:00 13.6 6 Este 23 Este 0 -- -- 84
2019-06-09 08:00:00 13.1 14 Este 28 Este 0 -- -- 83
2019-06-09 07:00:00 14 16 Este 29 Este 0 -- -- 84
2019-06-09 06:00:00 14.2 17 Sudeste 28 Este 0 -- -- 86
2019-06-09 05:00:00 14 15 Este 30 Este 0 -- -- 86
2019-06-09 04:00:00 13.9 17 Este 30 Este 0 -- -- 86
2019-06-09 03:00:00 14.1 17 Este 29 Este 0 -- -- 83
2019-06-09 02:00:00 14.1 17 Este 31 Este 0 -- -- 85
2019-06-09 01:00:00 14.2 17 Este 31 Este 0 -- -- 85
2019-06-09 00:00:00 14.2 17 Este 31 Este 0 -- -- 84
2019-06-08 23:00:00 14.2 20 Este 32 Este 0 -- -- 83
2019-06-08 22:00:00 14.1 17 Sudeste 27 Sudeste 0 -- -- 82
2019-06-08 21:00:00 14.1 15 Sudeste 30 Este 0 -- -- 79
2019-06-08 20:00:00 14.1 19 Este 31 Sudeste 0 -- -- 81
2019-06-08 19:00:00 14.3 10 Sudeste 26 Sudeste 0 -- -- 76
2019-06-08 18:00:00 14.5 12 Sudeste 27 Sudeste 0 -- -- 76
2019-06-08 17:00:00 15 13 Sudeste 27 Este 0 -- -- 76
2019-06-08 16:00:00 15.7 12 Sudeste 28 Sudeste 0 -- -- 73
2019-06-08 15:00:00 15.8 13 Este 29 Este 0 -- -- 73
2019-06-08 14:00:00 15.4 10 Este 24 Sudeste 0 -- -- 72
2019-06-08 13:00:00 15.5 12 Este 21 Este 0 -- -- 73
2019-06-08 12:00:00 15.4 11 Este 17 Este 0 -- -- 72
2019-06-08 11:00:00 14.6 8 Este 13 Este 0 -- -- 74
2019-06-08 10:00:00 14.7 7 Este 12 Este 0 -- -- 69
2019-06-08 09:00:00 13.6 3 Sur 11 Sudeste 0 -- -- 76
2019-06-08 08:00:00 12.7 3 Sur 13 Sur 0 -- -- 78
2019-06-08 07:00:00 10.7 6 Sur 13 Sudoeste 0 -- -- 83
2019-06-08 06:00:00 11.3 8 Sudoeste 13 Sudoeste 0 -- -- 76
2019-06-08 05:00:00 10.9 10 Sudoeste 13 Sudoeste 0 -- -- 84
2019-06-08 04:00:00 11.3 8 Sur 11 Sudoeste 0 -- -- 86
2019-06-08 03:00:00 11.3 8 Sudoeste 13 Sudoeste 0 -- -- 88
2019-06-08 02:00:00 11.6 8 Sudoeste 17 Sudoeste 0 -- -- 87
2019-06-08 01:00:00 13 9 Sudoeste 22 Oeste 0 -- -- 86
2019-06-08 00:00:00 13.2 12 Oeste 22 Oeste 0 -- -- 87
2019-06-07 23:00:00 13 12 Oeste 29 Oeste 0 -- -- 86
2019-06-07 22:00:00 13.8 13 Oeste 28 Oeste 0 -- -- 75
2019-06-07 21:00:00 14.1 14 Oeste 27 Sudoeste 0 -- -- 74
2019-06-07 20:00:00 13.6 17 Oeste 28 Oeste 0 -- -- 82
2019-06-07 19:00:00 13.5 17 Oeste 31 Oeste 0.1 -- -- 86
2019-06-07 18:00:00 13.1 18 Oeste 36 Oeste 0.2 -- -- 88
2019-06-07 17:00:00 14.3 22 Oeste 44 Sudoeste 0 -- -- 68
2019-06-07 16:00:00 15.2 22 Oeste 57 Oeste 0 -- -- 69
2019-06-07 15:00:00 13.9 31 Oeste 56 Oeste 0 -- -- 62
2019-06-07 14:00:00 14.5 22 Oeste 56 Oeste 0 -- -- 62
2019-06-07 13:00:00 15 35 Oeste 64 Oeste 0 -- -- 62
2019-06-07 12:00:00 14.5 37 Oeste 67 Oeste 0.2 -- -- 63
2019-06-07 11:00:00 13 35 Oeste 67 Oeste 0 -- -- 65
2019-06-07 10:00:00 14.3 39 Oeste 73 Oeste 0 -- -- 61
2019-06-07 09:00:00 13.7 34 Oeste 74 Sudoeste 0 -- -- 64
2019-06-07 08:00:00 12.7 38 Oeste 74 Oeste 0 -- -- 68
2019-06-07 07:00:00 13.2 40 Oeste 75 Sudoeste 0 -- -- 64
2019-06-07 06:00:00 13 42 Oeste 80 Sudoeste 0 -- -- 63
2019-06-07 05:00:00 12.9 46 Sudoeste 69 Sudoeste 0 -- -- 63
2019-06-07 04:00:00 13.1 45 Oeste 81 Oeste 0 -- -- 61
2019-06-07 03:00:00 13.1 43 Sudoeste 76 Oeste 0 -- -- 59
2019-06-07 02:00:00 13.4 38 Sudoeste 62 Sudoeste 0 -- -- 62
2019-06-07 01:00:00 13.9 32 Sudoeste 50 Oeste 0 -- -- 59
2019-06-07 00:00:00 14.2 28 Sudoeste 56 Sudoeste 0 -- -- 60
2019-06-06 23:00:00 15 22 Sudoeste 44 Oeste 0 -- -- 61
2019-06-06 22:00:00 16.1 29 Oeste 50 Oeste 0 -- -- 57
2019-06-06 21:00:00 16 17 Sudoeste 28 Sudoeste 0 -- -- 69
2019-06-06 20:00:00 15.6 14 Sudoeste 22 Sudoeste 0.1 -- -- 81
2019-06-06 19:00:00 17.2 6 Sur 21 Sur 0 -- -- 66
2019-06-06 18:00:00 15.4 8 Sudeste 22 Sudeste 0.5 -- -- 89
2019-06-06 17:00:00 15.4 18 Este 40 Este 0 -- -- 86
2019-06-06 16:00:00 15.2 30 Este 51 Este 0 -- -- 81
2019-06-06 15:00:00 15.8 36 Este 55 Este 0 -- -- 76
2019-06-06 14:00:00 15 32 Este 54 Este 0 -- -- 76
2019-06-06 13:00:00 15.8 31 Este 50 Este 0 -- -- 72
2019-06-06 12:00:00 15.7 30 Este 42 Este -- -- -- 73
2019-06-06 11:00:00 14.7 23 Este 35 Este -- -- -- 71
2019-06-06 10:00:00 14 17 Este 26 Este 0 -- -- 71
2019-06-06 09:00:00 12.9 13 Sudeste 26 Sudeste 0 -- -- 72
2019-06-06 08:00:00 10.9 6 Sudeste 20 Sudeste 0 -- -- 76
2019-06-06 07:00:00 10.7 4 Sur 17 Sudeste 0 -- -- 82
2019-06-06 06:00:00 9.8 8 Sur 17 Sudoeste 0 -- -- 83
2019-06-06 05:00:00 10 8 Sur 14 Sudoeste 0.1 -- -- 85
2019-06-06 04:00:00 10 6 Sur 15 Sur 0 -- -- 87
2019-06-06 03:00:00 10.7 5 Sur 16 Sudoeste 0 -- -- 84
2019-06-06 02:00:00 10.6 5 Sur 13 Sur 0 -- -- 84
2019-06-06 01:00:00 10.9 11 Sudoeste 16 Sudoeste 0 -- -- 83
2019-06-06 00:00:00 10.8 12 Sudoeste 28 Oeste 0.1 -- -- 86
2019-06-05 23:00:00 11.8 13 Sudoeste 27 Sudoeste 0 -- -- 83
2019-06-05 22:00:00 11.8 17 Sudoeste 28 Sudoeste 0.1 -- -- 86
2019-06-05 21:00:00 11.8 18 Sudoeste 27 Sudoeste 0.5 -- -- 88
2019-06-05 20:00:00 12.2 12 Sudoeste 28 Oeste 0.6 -- -- 81
2019-06-05 19:00:00 13.7 12 Oeste 22 Oeste 0 -- -- 73
2019-06-05 18:00:00 14.5 15 Oeste 51 Oeste 0 -- -- 66
2019-06-05 17:00:00 13.8 23 Oeste 35 Oeste 0 -- -- 73
2019-06-05 16:00:00 14.5 19 Oeste 34 Oeste 0 -- -- 72
2019-06-05 15:00:00 14.6 19 Oeste 33 Oeste 0 -- -- 76
2019-06-05 14:00:00 13.7 18 Oeste 48 Oeste 0.3 -- -- 76
2019-06-05 13:00:00 13.1 27 Oeste 53 Oeste 0 -- -- 76
2019-06-05 12:00:00 13.5 24 Oeste 49 Norte 0.2 -- -- 82
2019-06-05 11:00:00 11.6 24 Noroeste 45 Norte 0.3 -- -- 83
2019-06-05 10:00:00 12.9 19 Oeste 46 Oeste 1.4 -- -- 84
2019-06-05 09:00:00 -- 22 Oeste 44 Noroeste 0.3 -- -- 87
2019-06-05 08:00:00 -- 26 Oeste 48 Oeste 1.5 -- -- 86
2019-06-05 07:00:00 -- 23 Oeste 41 Oeste 0 -- -- 85
2019-06-05 06:00:00 -- 21 Oeste 42 Oeste 0.1 -- -- 79
2019-06-05 05:00:00 -- 14 Oeste 37 Norte 2.7 -- -- 87
2019-06-05 04:00:00 -- 23 Oeste 42 Oeste 0.7 -- -- 82
2019-06-05 03:00:00 -- 16 Oeste 46 Oeste 0.9 -- -- 88
2019-06-05 02:00:00 13.4 20 Oeste 33 Oeste 0.1 -- -- 87
2019-06-05 01:00:00 13.8 12 Oeste 33 Norte 0.1 -- -- 83
2019-06-05 00:00:00 14.4 19 Noroeste 33 Noroeste 0.2 -- -- 76
2019-06-04 23:00:00 14.6 18 Noroeste 40 Norte 0 -- -- 76
2019-06-04 22:00:00 14.8 21 Noroeste 37 Noroeste 0 -- -- 76
2019-06-04 21:00:00 15 19 Noroeste 40 Noroeste 0 -- -- 76
2019-06-04 20:00:00 15.2 20 Noroeste 41 Noroeste 0 -- -- 73
2019-06-04 19:00:00 15.7 15 Noroeste 47 Noroeste 0 -- -- 69
2019-06-04 18:00:00 15.7 23 Noroeste 46 Noroeste 0 -- -- 72
2019-06-04 17:00:00 15.4 28 Noroeste 62 Noroeste 0 -- -- 76
2019-06-04 16:00:00 15.5 26 Noroeste 52 Noroeste 0 -- -- 76
2019-06-04 15:00:00 15.5 26 Noroeste 49 Noroeste 0 -- -- 75
2019-06-04 14:00:00 15.7 23 Noroeste 48 Sudoeste 0 -- -- 72
2019-06-04 13:00:00 15.7 22 Oeste 62 Oeste 0 -- -- 76
2019-06-04 12:00:00 15.3 24 Noroeste 58 Noroeste 0 -- -- 81
2019-06-04 11:00:00 -- 7 Sudoeste 18 Sudoeste 0 -- -- 71
2019-06-04 10:00:00 -- 5 Sudeste 16 Sur 0 -- -- 82
2019-06-04 09:00:00 -- 8 Sur 19 Sudoeste 0 -- -- 84
2019-06-04 08:00:00 -- 7 Sudoeste 10 Oeste 0 -- -- 93
2019-06-04 07:00:00 -- 0 Calma 10 Oeste 0 -- -- 94
2019-06-04 06:00:00 -- 5 Oeste 14 Oeste 0 -- -- 94
2019-06-04 05:00:00 -- 7 Oeste 25 Noroeste 0 -- -- 94
2019-06-04 04:00:00 -- 8 Noroeste 22 Oeste 0 -- -- 94
2019-06-04 03:00:00 -- 11 Oeste 23 Sudoeste 0 -- -- 94
2019-06-04 02:00:00 -- 9 Oeste 16 Oeste 0 -- -- 94
2019-06-04 01:00:00 -- 4 Sudeste 6 Sudeste 0 -- -- 94
2019-06-04 00:00:00 -- 2 Nordeste 9 Este 0 -- -- 94
2019-06-03 23:00:00 -- 6 Este 9 Este 0 -- -- 94
2019-06-03 22:00:00 -- 3 Este 5 Sudeste 0 -- -- 94
2019-06-03 21:00:00 -- 2 Este 14 Este 0 -- -- 94
2019-06-03 20:00:00 -- 7 Este 12 Este 0 -- -- 94
2019-06-03 19:00:00 -- 5 Este 15 Este 0 -- -- 92
2019-06-03 18:00:00 -- 9 Sudeste 16 Sudeste 0 -- -- 92
2019-06-03 17:00:00 -- 7 Este 16 Este 0 -- -- 92
2019-06-03 16:00:00 -- 7 Este 15 Nordeste 0 -- -- 92
2019-06-03 15:00:00 -- 5 Este 16 Este 0 -- -- 94
2019-06-03 14:00:00 -- 6 Este 13 Este 0 -- -- 94
2019-06-03 13:00:00 -- 6 Sudeste 14 Este 0 -- -- 94
2019-06-03 12:00:00 -- 8 Este 12 Este 0 -- -- 94
2019-06-03 11:00:00 -- 5 Este 12 Este 0 -- -- 94
2019-06-03 10:00:00 -- 5 Sudeste 14 Sudeste 0 -- -- 94
2019-06-03 09:00:00 -- 4 Este 8 Nordeste 0 -- -- 94
2019-06-03 08:00:00 -- 3 Noroeste 8 Norte 0 -- -- 94
2019-06-03 07:00:00 -- 2 Noroeste 12 Noroeste 0 -- -- 94
2019-06-03 06:00:00 -- 8 Noroeste 15 Norte 0 -- -- 94
2019-06-03 05:00:00 -- 7 Oeste 17 Oeste 0 -- -- 94
2019-06-03 04:00:00 -- 10 Oeste 19 Oeste 0 -- -- 93
2019-06-03 03:00:00 -- 13 Sudoeste 18 Oeste 0 -- -- 94
2019-06-03 02:00:00 -- 7 Oeste 18 Oeste 0 -- -- 93
2019-06-03 01:00:00 -- 9 Oeste 15 Oeste 0 -- -- 92
2019-06-03 00:00:00 -- 8 Noroeste 16 Noroeste 0 -- -- 91
2019-06-02 23:00:00 -- 8 Noroeste 17 Noroeste 0 -- -- 88
2019-06-02 22:00:00 -- 9 Noroeste 17 Oeste 0 -- -- 85
2019-06-02 21:00:00 -- 6 Sudoeste 12 Oeste 0 -- -- 79
2019-06-02 20:00:00 -- 5 Sudoeste 11 Sudoeste 0 -- -- 74
2019-06-02 19:00:00 -- 5 Sudoeste 12 Noroeste 0 -- -- 76
2019-06-02 18:00:00 -- 6 Noroeste 12 Noroeste 0 -- -- 75
2019-06-02 17:00:00 -- 5 Oeste 14 Oeste 0 -- -- 71
2019-06-02 16:00:00 -- 11 Oeste 18 Sudoeste 0 -- -- 79
2019-06-02 15:00:00 -- 11 Sudoeste 22 Oeste 0 -- -- 88
2019-06-02 14:00:00 -- 10 Noroeste 24 Noroeste 0 -- -- 92
2019-06-02 13:00:00 -- 9 Noroeste 24 Oeste 0 -- -- 94
2019-06-02 12:00:00 -- 11 Noroeste 23 Noroeste 0 -- -- 94
2019-06-02 11:00:00 -- 10 Oeste 18 Oeste 0 -- -- 94
2019-06-02 10:00:00 -- 15 Oeste 20 Oeste 0 -- -- 93
2019-06-02 09:00:00 -- 8 Oeste 14 Oeste 0 -- -- 92
2019-06-02 08:00:00 -- 5 Sudoeste 12 Sudoeste 0 -- -- 92
2019-06-02 07:00:00 -- 10 Sudoeste 20 Sudoeste 0 -- -- 92
2019-06-02 06:00:00 -- 18 Oeste 22 Oeste 0 -- -- 91
2019-06-02 05:00:00 -- 19 Oeste 24 Sudoeste 0 -- -- 88
2019-06-02 04:00:00 -- 18 Sudoeste 24 Oeste 0 -- -- 82
2019-06-02 03:00:00 -- 16 Oeste 21 Oeste 0 -- -- 76
2019-06-02 02:00:00 -- 13 Oeste 20 Sudoeste 0 -- -- 76
2019-06-02 01:00:00 -- 19 Sudoeste 24 Sudoeste 0 -- -- 81
2019-06-02 00:00:00 -- 17 Oeste 22 Sudoeste 0 -- -- 76
2019-06-01 23:00:00 -- 15 Oeste 19 Oeste 0 -- -- 63
2019-06-01 22:00:00 -- 15 Sudoeste 18 Oeste 0 -- -- 72
2019-06-01 21:00:00 -- 13 Sudoeste 21 Sudoeste 0 -- -- 72
2019-06-01 20:00:00 -- 17 Oeste 24 Oeste 0 -- -- 76
2019-06-01 19:00:00 -- 17 Oeste 24 Oeste 0 -- -- 73
2019-06-01 18:00:00 -- 15 Oeste 22 Oeste 0 -- -- 75
2019-06-01 17:00:00 -- 16 Oeste 24 Noroeste 0 -- -- 71
2019-06-01 16:00:00 -- 18 Oeste 26 Oeste 0 -- -- 68
2019-06-01 15:00:00 -- 17 Oeste 24 Noroeste 0 -- -- 66
2019-06-01 14:00:00 -- 16 Noroeste 27 Oeste 0 -- -- 65
2019-06-01 13:00:00 -- 19 Oeste 31 Oeste 0 -- -- 56
2019-06-01 12:00:00 -- 24 Oeste 30 Oeste 0 -- -- 51
2019-06-01 11:00:00 -- 21 Oeste 28 Oeste 0 -- -- 48
2019-06-01 10:00:00 -- 17 Sudoeste 23 Oeste 0 -- -- 48
2019-06-01 09:00:00 -- 13 Sudoeste 17 Sudoeste 0 -- -- 55
2019-06-01 08:00:00 -- 12 Sudoeste 14 Sudoeste 0 -- -- 58
2019-06-01 07:00:00 -- 6 Sudoeste 9 Sudoeste 0 -- -- 54
2019-06-01 06:00:00 -- 5 Sudoeste 16 Sudoeste 0 -- -- 66
2019-06-01 05:00:00 -- 13 Sudoeste 14 Sudoeste 0 -- -- 72
2019-06-01 04:00:00 -- 9 Sudeste 14 Sudeste 0 -- -- 92
2019-06-01 03:00:00 -- 13 Sudeste 19 Sudeste 0 -- -- 92
2019-06-01 02:00:00 -- 16 Sudeste 23 Sudeste 0 -- -- 92
2019-06-01 01:00:00 -- 19 Sudeste 35 Sudeste 0 -- -- 92
2019-06-01 00:00:00 -- 30 Sudeste 38 Sudeste 0 -- -- 91
2019-05-31 23:00:00 -- 31 Sudeste 41 Sudeste 0 -- -- 90
2019-05-31 22:00:00 -- 28 Sudeste 40 Sudeste 0 -- -- 88
2019-05-31 21:00:00 -- 33 Sudeste 41 Sudeste 0 -- -- 87
2019-05-31 20:00:00 -- 30 Sudeste 41 Sudeste 0 -- -- 84
2019-05-31 19:00:00 -- 31 Sudeste 43 Sudeste 0 -- -- 82
2019-05-31 18:00:00 -- 33 Sudeste 44 Sudeste 0 -- -- 81
2019-05-31 17:00:00 -- 32 Sudeste 40 Sudeste 0 -- -- 81
2019-05-31 16:00:00 -- 30 Sudeste 38 Sudeste 0 -- -- 82
2019-05-31 15:00:00 -- 25 Sudeste 33 Sudeste 0 -- -- 83
2019-05-31 14:00:00 -- 24 Este 32 Este 0 -- -- 83
2019-05-31 13:00:00 -- 24 Este 33 Este 0 -- -- 86
2019-05-31 12:00:00 -- 24 Este 34 Sudeste 0 -- -- 87
2019-05-31 11:00:00 -- 21 Este 29 Este 0 -- -- 89
2019-05-31 10:00:00 -- 19 Este 25 Este 0 -- -- 91
2019-05-31 09:00:00 -- 18 Sudeste 28 Este 0 -- -- 94
2019-05-31 08:00:00 -- 16 Este 27 Sudeste 0 -- -- 94
2019-05-31 07:00:00 -- 21 Este 33 Sudeste 0 -- -- 94
2019-05-31 06:00:00 -- 26 Sudeste 39 Este 0 -- -- 94
2019-05-31 05:00:00 -- 23 Sudeste 34 Sudeste 0 -- -- 94
2019-05-31 04:00:00 -- 26 Este 36 Este 0 -- -- 94
2019-05-31 03:00:00 -- 25 Este 39 Este 0 -- -- 94
2019-05-31 02:00:00 -- 28 Este 42 Este 0 -- -- 93
2019-05-31 01:00:00 -- 25 Este 38 Este 0 -- -- 92
2019-05-31 00:00:00 -- 24 Este 36 Este 0 -- -- 92
2019-05-30 23:00:00 -- 27 Este 38 Este 0 -- -- 91
2019-05-30 22:00:00 -- 27 Este 46 Este 0 -- -- 90
2019-05-30 21:00:00 -- 32 Este 45 Este 0 -- -- 88
2019-05-30 20:00:00 -- 29 Este 42 Sudeste 0 -- -- 87
2019-05-30 19:00:00 -- 28 Este 40 Este 0 -- -- 84
2019-05-30 18:00:00 -- 25 Sudeste 38 Sudeste 0 -- -- 81
2019-05-30 17:00:00 -- 24 Este 35 Este 0 -- -- 79
2019-05-30 16:00:00 -- 27 Sudeste 37 Este 0 -- -- 81
2019-05-30 15:00:00 -- 25 Este 36 Este 0 -- -- 82
2019-05-30 14:00:00 -- 24 Este 32 Este 0 -- -- 83
2019-05-30 13:00:00 -- 19 Este 27 Este 0 -- -- 83
2019-05-30 12:00:00 -- 17 Este 23 Este 0 -- -- 87
2019-05-30 11:00:00 -- 16 Este 22 Este 0 -- -- 87
2019-05-30 10:00:00 -- 14 Este 21 Este 0 -- -- 87
2019-05-30 09:00:00 -- 16 Este 23 Este 0 -- -- 91
2019-05-30 08:00:00 -- 15 Este 21 Este 0 -- -- 92
2019-05-30 07:00:00 -- 9 Sudeste 13 Este 0 -- -- 92
2019-05-30 06:00:00 -- 10 Sudeste 22 Este 0 -- -- 92
2019-05-30 05:00:00 -- 18 Sudeste 31 Sudeste 0 -- -- 94
2019-05-30 04:00:00 -- 22 Este 31 Este 0 -- -- 93
2019-05-30 03:00:00 -- 21 Este 31 Sudeste 0 -- -- 92
2019-05-30 02:00:00 -- 26 Sudeste -- -- 0 -- -- 91
2019-05-30 01:00:00 -- 23 Sudeste 35 Sudeste 0 -- -- 91
2019-05-30 00:00:00 -- 24 Este 35 Este 0 -- -- 91
2019-05-29 23:00:00 -- 25 Este 34 Este 0 -- -- 91
2019-05-29 22:00:00 -- 25 Este 35 Este 0 -- -- 91
2019-05-29 21:00:00 -- 21 Este 30 Este 0 -- -- 91
2019-05-29 20:00:00 -- 21 Este 29 Este 0 -- -- 90
2019-05-29 19:00:00 -- 21 Este 30 Este 0 -- -- 87
2019-05-29 18:00:00 -- 19 Este 26 Este 0 -- -- 86
2019-05-29 17:00:00 -- 19 Este 26 Este 0 -- -- 84
2019-05-29 16:00:00 -- 18 Este 24 Este 0 -- -- 83
2019-05-29 15:00:00 -- 17 Este 27 Sudeste 0 -- -- 83
2019-05-29 14:00:00 -- 15 Este 22 Este 0 -- -- 86
2019-05-29 13:00:00 -- 5 Este 18 Sudeste 0 -- -- 86
2019-05-29 12:00:00 -- 3 Este 12 Sudeste 0 -- -- 84
2019-05-29 11:00:00 -- 0 Calma 8 Noroeste 0 -- -- 85
2019-05-29 10:00:00 -- 4 Norte 9 Norte 0 -- -- 86
2019-05-29 09:00:00 -- 4 Oeste 9 Sudoeste 0 -- -- 87
2019-05-29 08:00:00 -- 6 Oeste 14 Sudoeste 0 -- -- 90
2019-05-29 07:00:00 -- 10 Oeste 13 Sudoeste 0 -- -- 90
2019-05-29 06:00:00 -- 8 Sudoeste 13 Oeste 0 -- -- 88
2019-05-29 05:00:00 -- 10 Sudoeste 14 Sudoeste 0 -- -- 88
2019-05-29 04:00:00 -- 11 Sudoeste 14 Sudoeste 0 -- -- 90
2019-05-29 03:00:00 -- 12 Sudoeste 17 Sudoeste 0 -- -- 90
2019-05-29 02:00:00 -- 11 Sudoeste 14 Sudoeste 0 -- -- 90
2019-05-29 01:00:00 -- 8 Oeste 14 Oeste 0 -- -- 88
2019-05-29 00:00:00 -- 8 Oeste 15 Oeste 0 -- -- 87
2019-05-28 23:00:00 -- 7 Oeste 14 Noroeste 0 -- -- 87
2019-05-28 22:00:00 -- 6 Noroeste 18 Norte 0 -- -- 87
2019-05-28 21:00:00 -- 9 Noroeste 21 Noroeste 0 -- -- 85
2019-05-28 20:00:00 -- 9 Noroeste 19 Norte 0 -- -- 83
2019-05-28 19:00:00 -- 12 Noroeste 24 Noroeste 0 -- -- 82
2019-05-28 18:00:00 -- 11 Noroeste 24 Noroeste 0 -- -- 83
2019-05-28 17:00:00 -- 10 Noroeste 22 Norte 0 -- -- 83
2019-05-28 16:00:00 -- 13 Noroeste 27 Norte 0 -- -- 83
2019-05-28 15:00:00 -- 17 Noroeste 25 Noroeste 0 -- -- 83
2019-05-28 14:00:00 -- 15 Noroeste 24 Noroeste 0 -- -- 82
2019-05-28 13:00:00 -- 9 Noroeste 24 Norte 0 -- -- 86
2019-05-28 12:00:00 -- 14 Oeste 27 Sudoeste 0 -- -- 84
2019-05-28 11:00:00 -- 17 Oeste 24 Oeste 0 -- -- 88
2019-05-28 10:00:00 -- 13 Oeste 25 Sudoeste 0 -- -- 88
2019-05-28 09:00:00 -- 17 Sudoeste 24 Sudoeste 0 -- -- 88
2019-05-28 08:00:00 -- 12 Sudoeste 19 Oeste 0 -- -- 90
2019-05-28 07:00:00 -- 14 Sudoeste 38 Sudoeste 0 -- -- 91
2019-05-28 06:00:00 -- 12 Sudoeste 19 Oeste 0 -- -- 91
2019-05-28 05:00:00 -- 13 Oeste 20 Oeste 0 -- -- 90
2019-05-28 04:00:00 -- 8 Sudoeste 15 Oeste 0 -- -- 88
2019-05-28 03:00:00 -- 6 Noroeste 16 Noroeste 0 -- -- 86
2019-05-28 02:00:00 -- 6 Noroeste 14 Noroeste 0 -- -- 84
2019-05-28 01:00:00 -- 10 Noroeste 17 Noroeste 0 -- -- 82
2019-05-28 00:00:00 -- 5 Noroeste 21 Norte 0 -- -- 82
2019-05-27 23:00:00 -- 3 Noroeste 18 Norte 0 -- -- 83
2019-05-27 22:00:00 -- 9 Noroeste 19 Noroeste 0.1 -- -- 82
2019-05-27 21:00:00 -- 8 Noroeste 19 Noroeste 0 -- -- 82
2019-05-27 20:00:00 -- 8 Noroeste 15 Noroeste 0 -- -- 82
2019-05-27 19:00:00 -- 4 Norte 16 Norte 0 -- -- 82
2019-05-27 18:00:00 -- 2 Sudeste 21 Nordeste 0 -- -- 83
2019-05-27 17:00:00 -- 0 Calma 15 Sudeste 0 -- -- 82
2019-05-27 16:00:00 -- 4 Sudeste 18 Este 0 -- -- 88
2019-05-27 15:00:00 -- 6 Sudeste 25 Nordeste 0 -- -- 94
2019-05-27 14:00:00 -- 10 Norte 24 Noroeste 0 -- -- 95
2019-05-27 13:00:00 -- 9 Noroeste 26 Noroeste 0 -- -- 95
2019-05-27 12:00:00 -- 12 Noroeste 35 Norte 0.1 -- -- 95
2019-05-27 11:00:00 -- 17 Oeste 29 Sudoeste 0.1 -- -- 95
2019-05-27 10:00:00 -- 14 Oeste 20 Oeste 0.1 -- -- 95
2019-05-27 09:00:00 -- 12 Sudoeste 22 Sudoeste 0.3 -- -- 95
2019-05-27 08:00:00 -- 18 Sudoeste 24 Sudoeste 0.2 -- -- 95
2019-05-27 07:00:00 -- 13 Oeste 22 Sudoeste 0.1 -- -- 94
2019-05-27 06:00:00 -- 13 Oeste 24 Oeste 0 -- -- 92
2019-05-27 05:00:00 -- 14 Oeste 21 Oeste 0 -- -- 91
2019-05-27 04:00:00 -- 10 Sudoeste 17 Sudoeste 0 -- -- 91
2019-05-27 03:00:00 -- 10 Oeste 18 Noroeste 0 -- -- 91
2019-05-27 02:00:00 -- 9 Oeste 14 Sudoeste 0 -- -- 91
2019-05-27 01:00:00 -- 6 Oeste 16 Noroeste 0 -- -- 90
2019-05-27 00:00:00 -- 5 Oeste 13 Oeste 0 -- -- 90
2019-05-26 23:00:00 -- 8 Oeste 15 Oeste 0 -- -- 88
2019-05-26 22:00:00 -- 5 Noroeste 15 Noroeste 0 -- -- 87
2019-05-26 21:00:00 -- 5 Noroeste 12 Norte 0 -- -- 87
2019-05-26 20:00:00 -- 4 Noroeste 15 Norte 0 -- -- 88
2019-05-26 19:00:00 -- 5 Noroeste 19 Noroeste 0 -- -- 89
2019-05-26 18:00:00 -- 5 Noroeste 16 Noroeste 0 -- -- 87
2019-05-26 17:00:00 -- 5 Noroeste 14 Noroeste 0 -- -- 87
2019-05-26 16:00:00 -- 6 Noroeste 13 Noroeste 0 -- -- 87
2019-05-26 15:00:00 -- 4 Noroeste 18 Noroeste 0 -- -- 91
2019-05-26 14:00:00 -- 10 Noroeste 15 Noroeste 0 -- -- 92
2019-05-26 13:00:00 -- 4 Noroeste 15 Noroeste 0 -- -- 92
2019-05-26 12:00:00 -- 3 Noroeste 14 Noroeste 0 -- -- 91
2019-05-26 11:00:00 -- 6 Noroeste 18 Oeste 0 -- -- 87
2019-05-26 10:00:00 -- 9 Oeste 17 Sudoeste 0 -- -- 86
2019-05-26 09:00:00 -- 13 Sudoeste 16 Sudoeste 0 -- -- 90
2019-05-26 08:00:00 -- 13 Sudoeste 16 Sudoeste 0 -- -- 91
2019-05-26 07:00:00 -- 13 Sudoeste 16 Sudoeste 0 -- -- 91
2019-05-26 06:00:00 -- 10 Sudoeste 15 Oeste 0 -- -- 91
2019-05-26 05:00:00 -- 8 Sudoeste 10 Sudoeste 0 -- -- 90
2019-05-26 04:00:00 -- 9 Sudoeste 12 Sudoeste 0 -- -- 90
2019-05-26 03:00:00 -- 9 Sudoeste 12 Oeste 0 -- -- 90
2019-05-26 02:00:00 -- 8 Sudoeste 9 Sudoeste 0 -- -- 88
2019-05-26 01:00:00 -- 8 Sudoeste 10 Sudoeste 0 -- -- 88
2019-05-26 00:00:00 -- 8 Sudoeste 9 Sur 0 -- -- 88
2019-05-25 23:00:00 -- 5 Sudoeste 8 Sudoeste 0 -- -- 87
2019-05-25 22:00:00 -- 2 Noroeste 9 Sudeste 0 -- -- 86
2019-05-25 21:00:00 -- 2 Sudeste 10 Este 0 -- -- 83
2019-05-25 20:00:00 -- 3 Sudeste 14 Oeste 0 -- -- 81
2019-05-25 19:00:00 -- 0 Calma 12 Este 0 -- -- 79
2019-05-25 18:00:00 -- 2 Sur 10 Sudeste 0 -- -- 76
2019-05-25 17:00:00 -- 4 Sudeste 13 Norte 0 -- -- 76
2019-05-25 16:00:00 -- 3 Noroeste 15 Norte 0 -- -- 81
2019-05-25 15:00:00 -- 6 Norte 17 Noroeste 0 -- -- 83
2019-05-25 14:00:00 -- 4 Noroeste 13 Norte 0 -- -- 82
2019-05-25 13:00:00 -- 5 Noroeste 14 Noroeste 0 -- -- 84
2019-05-25 12:00:00 -- 5 Noroeste 13 Noroeste 0 -- -- 86
2019-05-25 11:00:00 -- 3 Noroeste 13 Oeste 0 -- -- 86
2019-05-25 10:00:00 -- 4 Noroeste 13 Norte 0 -- -- 87
2019-05-25 09:00:00 -- 3 Noroeste 12 Norte 0 -- -- 90
2019-05-25 08:00:00 -- 0 Calma 12 Norte 0 -- -- 92
2019-05-25 07:00:00 -- 4 Sudeste 16 Sudeste 0 -- -- 92
2019-05-25 06:00:00 -- 3 Sudeste 22 Noroeste 0 -- -- 92
2019-05-25 05:00:00 -- 8 Noroeste 17 Noroeste 0 -- -- 92
2019-05-25 04:00:00 -- 8 Oeste 13 Oeste 0 -- -- 92
2019-05-25 03:00:00 -- 5 Oeste 8 Noroeste 0 -- -- 92
2019-05-25 02:00:00 -- 6 Noroeste 10 Noroeste 0 -- -- 92
2019-05-25 01:00:00 -- 3 Sudeste 12 Sudeste 0 -- -- 92
2019-05-25 00:00:00 -- 7 Noroeste 15 Norte 0 -- -- 92
2019-05-24 23:00:00 -- 5 Noroeste 16 Noroeste 0 -- -- 92
2019-05-24 22:00:00 -- 9 Noroeste 18 Norte 0 -- -- 91
2019-05-24 21:00:00 -- 8 Oeste 13 Noroeste 0 -- -- 91
2019-05-24 20:00:00 -- 8 Noroeste 17 Norte 0 -- -- 90
2019-05-24 19:00:00 -- 10 Noroeste 17 Noroeste 0 -- -- 90
2019-05-24 18:00:00 -- 10 Noroeste 23 Noroeste 0 -- -- 90
2019-05-24 17:00:00 -- 17 Noroeste 24 Noroeste 0 -- -- 87
2019-05-24 16:00:00 -- 12 Noroeste 22 Noroeste 0 -- -- 87
2019-05-24 15:00:00 -- 8 Noroeste 32 Noroeste 0 -- -- 87
2019-05-24 14:00:00 -- 12 Oeste 30 Oeste 0 -- -- 88
2019-05-24 13:00:00 -- 14 Oeste 30 Oeste 0 -- -- 87
2019-05-24 12:00:00 -- 15 Oeste 29 Oeste 0 -- -- 87
2019-05-24 11:00:00 -- 18 Oeste 28 Oeste 0 -- -- 86
2019-05-24 10:00:00 -- 17 Oeste 28 Oeste 0 -- -- 88
2019-05-24 09:00:00 -- 13 Oeste 22 Oeste 0 -- -- 92
2019-05-24 08:00:00 -- 18 Oeste 28 Oeste 0 -- -- 92
2019-05-24 07:00:00 -- 17 Oeste 28 Oeste 0 -- -- 92
2019-05-24 06:00:00 -- 12 Oeste 25 Oeste 0 -- -- 92
2019-05-24 05:00:00 -- 16 Oeste 27 Oeste 0 -- -- 92
2019-05-24 04:00:00 -- 11 Oeste 31 Oeste 0 -- -- 92
2019-05-24 03:00:00 -- 15 Oeste 30 Oeste 0 -- -- 92
2019-05-24 02:00:00 -- 16 Oeste 33 Oeste 0 -- -- 91
2019-05-24 01:00:00 -- 18 Oeste 29 Sudoeste 0 -- -- 91
2019-05-24 00:00:00 -- 15 Noroeste 36 Noroeste 0 -- -- 90
2019-05-23 23:00:00 -- 16 Oeste 34 Oeste 0 -- -- 90
2019-05-23 22:00:00 -- 21 Oeste 45 Oeste 0 -- -- 89
2019-05-23 21:00:00 -- 20 Oeste 49 Oeste 0 -- -- 90
2019-05-23 20:00:00 -- 20 Oeste 46 Oeste 0 -- -- 90
2019-05-23 19:00:00 -- 18 Noroeste 43 Oeste 0 -- -- 90
2019-05-23 18:00:00 -- 13 Noroeste 35 Oeste 0 -- -- 86
2019-05-23 17:00:00 -- 8 Noroeste 28 Noroeste 0 -- -- 86
2019-05-23 16:00:00 -- 17 Noroeste 34 Noroeste 0 -- -- 89
2019-05-23 15:00:00 -- 15 Noroeste 30 Norte 0 -- -- 84
2019-05-23 14:00:00 -- 8 Noroeste 14 Noroeste 0 -- -- 76
2019-05-23 13:00:00 -- 2 Noroeste 12 Noroeste 0 -- -- 76
2019-05-23 12:00:00 -- 8 Oeste 16 Oeste 0 -- -- 81
2019-05-23 11:00:00 -- 9 Oeste 15 Oeste 0 -- -- 82
2019-05-23 10:00:00 -- 9 Sudoeste 14 Oeste 0 -- -- 92
2019-05-23 09:00:00 -- 11 Sudoeste 22 Oeste 0 -- -- 94
2019-05-23 08:00:00 -- 15 Oeste 30 Oeste 0 -- -- 94
2019-05-23 07:00:00 -- 17 Oeste 28 Oeste 0 -- -- 94
2019-05-23 06:00:00 -- 17 Oeste 31 Oeste 0 -- -- 92
2019-05-23 05:00:00 -- 23 Oeste 36 Oeste 0 -- -- 92
2019-05-23 04:00:00 -- 23 Oeste 33 Oeste 0 -- -- 94
2019-05-23 03:00:00 -- 21 Oeste 31 Oeste 0 -- -- 94
2019-05-23 02:00:00 -- 22 Oeste 28 Oeste 0 -- -- 94
2019-05-23 01:00:00 -- 3 Oeste 24 Oeste 0 -- -- 94
2019-05-23 00:00:00 -- 10 Sudeste 18 Este 0 -- -- 94
2019-05-22 23:00:00 -- 13 Sudeste 22 Sudeste 0 -- -- 94
2019-05-22 22:00:00 -- 17 Sudeste 23 Sudeste 0 -- -- 92
2019-05-22 21:00:00 -- 18 Sudeste 24 Sudeste 0 -- -- 91
2019-05-22 20:00:00 -- 17 Sudeste 23 Sudeste 0 -- -- 90
2019-05-22 19:00:00 -- 14 Este 22 Este 0 -- -- 88
2019-05-22 18:00:00 -- 17 Este 25 Este 0 -- -- 88
2019-05-22 17:00:00 -- 19 Este 28 Este 0 -- -- 89
2019-05-22 16:00:00 -- 18 Este 27 Este 0 -- -- 87
2019-05-22 15:00:00 -- 23 Este 32 Este 0 -- -- 86
2019-05-22 14:00:00 -- 23 Este 31 Este 0 -- -- 86
2019-05-22 13:00:00 -- 20 Este 32 Este 0 -- -- 86
2019-05-22 12:00:00 -- 21 Este 29 Este 0 -- -- 87
2019-05-22 11:00:00 -- 18 Este 29 Este 0 -- -- 88
2019-05-22 10:00:00 -- 20 Este 32 Sudeste 0 -- -- 90
2019-05-22 09:00:00 -- 20 Este 30 Sudeste 0 -- -- 91
2019-05-22 08:00:00 -- 18 Este 30 Sudeste 0 -- -- 92
2019-05-22 07:00:00 -- 22 Este 36 Este 0 -- -- 91
2019-05-22 06:00:00 -- 22 Este 34 Este 0 -- -- 91
2019-05-22 05:00:00 -- 22 Este 35 Este 0 -- -- 91
2019-05-22 04:00:00 -- 25 Este 36 Este 0 -- -- 92
2019-05-22 03:00:00 -- 22 Este 34 Este 0 -- -- 92
2019-05-22 02:00:00 -- 28 Este 40 Este 0 -- -- 92
2019-05-22 01:00:00 -- 27 Este 39 Este 0 -- -- 92
2019-05-22 00:00:00 -- 24 Este 35 Este 0 -- -- 92
2019-05-21 23:00:00 -- 24 Este 36 Este 0 -- -- 92
2019-05-21 22:00:00 -- 23 Este 39 Este 0 -- -- 92
2019-05-21 21:00:00 -- 25 Este 38 Este 0 -- -- 91
2019-05-21 20:00:00 -- 24 Este 36 Este 0 -- -- 90
2019-05-21 19:00:00 -- 25 Este 41 Este 0 -- -- 89
2019-05-21 18:00:00 -- 24 Este 38 Este 0 -- -- 89
2019-05-21 17:00:00 -- 22 Este 36 Este 0 -- -- 88
2019-05-21 16:00:00 -- 23 Este 37 Este 0 -- -- 87
2019-05-21 15:00:00 -- 24 Este 35 Este 0 -- -- 87
2019-05-21 14:00:00 -- 24 Este 35 Este 0 -- -- 87
2019-05-21 13:00:00 -- 22 Este 34 Este 0 -- -- 86
2019-05-21 12:00:00 -- 23 Este 31 Este 0 -- -- 86
2019-05-21 11:00:00 -- 18 Este 30 Este 0 -- -- 87
2019-05-21 10:00:00 -- 11 Este 21 Este 0 -- -- 88
2019-05-21 09:00:00 -- 15 Este 25 Sudeste 0 -- -- 91
2019-05-21 08:00:00 -- 17 Sudeste 23 Sudeste 0 -- -- 92
2019-05-21 07:00:00 -- 14 Sudeste 19 Sudeste 0 -- -- 92
2019-05-21 06:00:00 -- 11 Sudeste 18 Sudeste 0 -- -- 92
2019-05-21 05:00:00 -- 13 Sudeste 22 Sudeste 0 -- -- 92
2019-05-21 04:00:00 -- 18 Sudeste 25 Este 0 -- -- 92
2019-05-21 03:00:00 -- 17 Este 24 Este 0 -- -- 91
2019-05-21 02:00:00 -- 16 Este 24 Este 0 -- -- 91
2019-05-21 01:00:00 -- 17 Este 27 Este 0 -- -- 91
2019-05-21 00:00:00 -- 19 Este 26 Este 0 -- -- 91